createdAt,value
2018-07-10T00:02:29.835Z,101634.80
2018-07-10T00:07:35.476Z,101630.69
2018-07-10T00:10:30.458Z,101623.08
2018-07-10T00:12:59.570Z,101623.52
2018-07-10T00:15:28.457Z,101630.45
2018-07-10T00:17:57.349Z,101621.64
2018-07-10T00:20:26.272Z,101618.16
2018-07-10T00:22:55.246Z,101628.33
2018-07-10T00:25:24.149Z,101614.55
2018-07-10T00:27:53.038Z,101608.55
2018-07-10T00:30:21.968Z,101611.09
2018-07-10T00:32:50.868Z,101616.83
2018-07-10T00:35:19.793Z,101614.80
2018-07-10T00:38:03.413Z,101613.65
2018-07-10T00:40:32.318Z,101610.91
2018-07-10T00:43:01.794Z,101605.98
2018-07-10T00:45:30.679Z,101609.09
2018-07-10T00:47:59.601Z,101615.47
2018-07-10T00:50:28.505Z,101611.73
2018-07-10T00:52:57.560Z,101615.69
2018-07-10T00:55:26.454Z,101608.05
2018-07-10T00:57:55.388Z,101607.27
2018-07-10T01:00:29.778Z,101604.21
2018-07-10T01:02:58.868Z,101606.00
2018-07-10T01:05:27.806Z,101604.64
2018-07-10T01:07:57.673Z,101593.24
2018-07-10T01:10:26.712Z,101594.81
2018-07-10T01:12:55.625Z,101594.69
2018-07-10T01:15:26.070Z,101588.78
2018-07-10T01:17:55.166Z,101593.84
2018-07-10T01:20:24.329Z,101602.17
2018-07-10T01:22:53.909Z,101589.47
2018-07-10T01:25:23.145Z,101592.52
2018-07-10T01:27:52.094Z,101594.30
2018-07-10T01:30:21.036Z,101585.25
2018-07-10T01:32:49.953Z,101585.67
2018-07-10T01:35:18.980Z,101580.41
2018-07-10T01:37:47.865Z,101583.03
2018-07-10T01:40:16.757Z,101586.83
2018-07-10T01:42:45.833Z,101576.58
2018-07-10T01:45:14.736Z,101575.17
2018-07-10T01:47:43.631Z,101572.75
2018-07-10T01:50:12.542Z,101567.02
2018-07-10T01:52:41.452Z,101571.14
2018-07-10T01:55:10.383Z,101571.86
2018-07-10T01:57:39.529Z,101571.01
2018-07-10T02:00:08.841Z,101579.59
2018-07-10T02:02:38.487Z,101575.08
2018-07-10T02:05:07.534Z,101579.55
2018-07-10T02:07:36.471Z,101567.48
2018-07-10T02:10:05.377Z,101570.38
2018-07-10T02:12:34.268Z,101570.92
2018-07-10T02:15:03.202Z,101570.42
2018-07-10T02:17:32.107Z,101560.39
2018-07-10T02:20:01.052Z,101562.55
2018-07-10T02:22:29.940Z,101563.27
2018-07-10T02:24:58.881Z,101558.86
2018-07-10T02:27:27.789Z,101556.73
2018-07-10T02:29:56.717Z,101560.64
2018-07-10T02:32:25.613Z,101554.60
2018-07-10T02:34:54.532Z,101556.14
2018-07-10T02:37:23.617Z,101560.13
2018-07-10T02:39:52.524Z,101552.91
2018-07-10T02:42:22.230Z,101552.73
2018-07-10T02:44:51.159Z,101542.48
2018-07-10T02:47:20.159Z,101548.15
2018-07-10T02:49:49.398Z,101552.44
2018-07-10T02:52:18.317Z,101549.08
2018-07-10T02:54:47.219Z,101550.61
2018-07-10T02:57:16.135Z,101550.23
2018-07-10T02:59:46.317Z,101541.39
2018-07-10T03:02:20.329Z,101550.14
2018-07-10T03:04:50.235Z,101543.52
2018-07-10T03:07:19.130Z,101544.53
2018-07-10T03:09:48.487Z,101555.02
2018-07-10T03:12:17.792Z,101543.55
2018-07-10T03:14:46.734Z,101538.67
2018-07-10T03:17:18.938Z,101546.62
2018-07-10T03:19:48.124Z,101546.70
2018-07-10T03:22:17.385Z,101546.75
2018-07-10T03:24:47.369Z,101536.16
2018-07-10T03:27:16.281Z,101532.00
2018-07-10T03:29:45.194Z,101533.66
2018-07-10T03:32:14.102Z,101542.11
2018-07-10T03:34:43.014Z,101539.05
2018-07-10T03:37:12.103Z,101544.48
2018-07-10T03:39:42.350Z,101541.69
2018-07-10T03:42:12.570Z,101544.70
2018-07-10T03:44:42.822Z,101541.22
2018-07-10T03:47:13.223Z,101539.75
2018-07-10T03:49:42.734Z,101541.89
2018-07-10T03:52:12.881Z,101541.55
2018-07-10T03:54:42.580Z,101542.06
2018-07-10T03:57:12.763Z,101545.91
2018-07-10T03:59:46.180Z,101543.16
2018-07-10T04:02:15.074Z,101535.22
2018-07-10T04:04:44.282Z,101539.44
2018-07-10T04:07:13.563Z,101540.61
2018-07-10T04:09:42.506Z,101548.39
2018-07-10T04:12:11.463Z,101549.27
2018-07-10T04:14:40.938Z,101551.59
2018-07-10T04:17:10.518Z,101552.51
2018-07-10T04:19:39.431Z,101548.81
2018-07-10T04:22:08.399Z,101549.22
2018-07-10T04:24:38.737Z,101549.33
2018-07-10T04:27:20.590Z,101544.98
2018-07-10T04:29:53.139Z,101543.52
2018-07-10T04:32:22.588Z,101547.77
2018-07-10T04:34:51.522Z,101531.30
2018-07-10T04:37:20.479Z,101533.09
2018-07-10T04:39:49.367Z,101528.73
2018-07-10T04:42:28.382Z,101531.19
2018-07-10T04:45:07.076Z,101529.06
2018-07-10T04:47:48.635Z,101532.33
2018-07-10T04:50:21.358Z,101525.62
2018-07-10T04:52:55.099Z,101528.02
2018-07-10T04:55:24.450Z,101526.52
2018-07-10T04:58:09.661Z,101526.80
2018-07-10T05:00:44.907Z,101529.66
2018-07-10T05:03:16.209Z,101525.48
2018-07-10T05:05:45.438Z,101529.15
2018-07-10T05:08:17.037Z,101523.67
2018-07-10T05:10:45.979Z,101519.72
2018-07-10T05:13:14.884Z,101516.32
2018-07-10T05:15:43.893Z,101516.19
2018-07-10T05:18:12.791Z,101515.60
2018-07-10T05:20:44.351Z,101518.34
2018-07-10T05:23:15.317Z,101509.52
2018-07-10T05:25:48.441Z,101514.66
2018-07-10T05:28:17.619Z,101511.43
2018-07-10T05:30:46.529Z,101511.09
2018-07-10T05:33:16.404Z,101509.09
2018-07-10T05:35:45.716Z,101502.81
2018-07-10T05:38:14.681Z,101501.70
2018-07-10T05:40:44.198Z,101501.98
2018-07-10T05:43:15.435Z,101495.36
2018-07-10T05:45:44.744Z,101496.14
2018-07-10T05:48:16.282Z,101497.66
2018-07-10T05:50:45.261Z,101487.91
2018-07-10T05:53:14.170Z,101485.86
2018-07-10T05:55:45.625Z,101493.68
2018-07-10T05:58:14.549Z,101490.14
2018-07-10T06:00:43.457Z,101477.39
2018-07-10T06:03:12.374Z,101481.15
2018-07-10T06:05:41.688Z,101480.44
2018-07-10T06:08:12.383Z,101475.89
2018-07-10T06:10:41.571Z,101477.34
2018-07-10T06:13:10.489Z,101489.11
2018-07-10T06:15:39.422Z,101479.52
2018-07-10T06:18:08.330Z,101482.98
2018-07-10T06:20:37.253Z,101480.52
2018-07-10T06:23:06.254Z,101476.79
2018-07-10T06:25:35.928Z,101479.77
2018-07-10T06:28:08.835Z,101483.92
2018-07-10T06:30:38.827Z,101479.31
2018-07-10T06:33:18.820Z,101478.06
2018-07-10T06:35:53.342Z,101476.14
2018-07-10T06:38:22.276Z,101471.64
2018-07-10T06:40:51.903Z,101474.33
2018-07-10T06:43:25.971Z,101466.73
2018-07-10T06:45:54.930Z,101470.48
2018-07-10T06:48:23.934Z,101465.58
2018-07-10T06:50:52.818Z,101464.41
2018-07-10T06:53:25.075Z,101453.75
2018-07-10T06:55:56.311Z,101450.92
2018-07-10T06:58:25.848Z,101458.95
2018-07-10T07:00:56.122Z,101464.41
2018-07-10T07:03:26.148Z,101460.96
2018-07-10T07:05:55.069Z,101455.63
2018-07-10T07:08:27.123Z,101466.73
2018-07-10T07:10:56.038Z,101463.20
2018-07-10T07:13:24.925Z,101469.45
2018-07-10T07:15:53.876Z,101473.99
2018-07-10T07:18:22.748Z,101464.88
2018-07-10T07:20:51.659Z,101460.33
2018-07-10T07:23:20.561Z,101466.39
2018-07-10T07:25:52.845Z,101455.33
2018-07-10T07:28:21.740Z,101449.49
2018-07-10T07:30:50.658Z,101449.70
2018-07-10T07:33:19.572Z,101451.25
2018-07-10T07:35:48.458Z,101445.52
2018-07-10T07:38:17.606Z,101437.50
2018-07-10T07:40:46.532Z,101441.66
2018-07-10T07:43:15.437Z,101438.91
2018-07-10T07:45:44.352Z,101430.89
2018-07-10T07:48:13.469Z,101424.05
2018-07-10T07:50:42.474Z,101434.70
2018-07-10T07:53:11.505Z,101437.09
2018-07-10T07:55:41.437Z,101435.44
2018-07-10T07:58:10.340Z,101439.44
2018-07-10T08:00:39.521Z,101429.60
2018-07-10T08:03:08.731Z,101423.91
2018-07-10T08:05:37.988Z,101426.28
2018-07-10T08:08:07.181Z,101425.92
2018-07-10T08:10:36.256Z,101422.54
2018-07-10T08:13:05.170Z,101428.50
2018-07-10T08:15:34.178Z,101429.97
2018-07-10T08:18:03.154Z,101423.28
2018-07-10T08:20:32.037Z,101419.89
2018-07-10T08:23:00.975Z,101416.69
2018-07-10T08:25:29.862Z,101411.22
2018-07-10T08:27:58.777Z,101417.13
2018-07-10T08:30:27.765Z,101414.05
2018-07-10T08:32:57.260Z,101407.51
2018-07-10T08:35:26.840Z,101410.78
2018-07-10T08:37:56.787Z,101409.31
2018-07-10T08:40:26.662Z,101403.87
2018-07-10T08:42:56.397Z,101403.84
2018-07-10T08:45:25.325Z,101404.83
2018-07-10T08:47:54.663Z,101409.97
2018-07-10T08:50:23.614Z,101396.73
2018-07-10T08:52:52.708Z,101403.13
2018-07-10T08:55:21.591Z,101403.06
2018-07-10T08:57:50.498Z,101398.31
2018-07-10T09:00:19.400Z,101399.49
2018-07-10T09:02:48.649Z,101399.83
2018-07-10T09:05:17.520Z,101395.20
2018-07-10T09:07:46.597Z,101392.73
2018-07-10T09:10:15.479Z,101394.86
2018-07-10T09:12:44.663Z,101389.64
2018-07-10T09:15:13.590Z,101384.94
2018-07-10T09:17:42.576Z,101384.23
2018-07-10T09:20:11.776Z,101382.68
2018-07-10T09:22:40.749Z,101382.14
2018-07-10T09:25:13.309Z,101378.51
2018-07-10T09:27:42.239Z,101374.17
2018-07-10T09:30:11.198Z,101378.83
2018-07-10T09:32:45.420Z,101376.89
2018-07-10T09:35:14.353Z,101366.55
2018-07-10T09:37:44.705Z,101365.25
2018-07-10T09:40:16.795Z,101363.08
2018-07-10T09:42:58.465Z,101364.77
2018-07-10T09:45:31.623Z,101361.56
2018-07-10T09:48:00.743Z,101359.72
2018-07-10T09:50:29.668Z,101358.17
2018-07-10T09:52:58.616Z,101359.66
2018-07-10T09:55:27.537Z,101351.46
2018-07-10T09:57:57.873Z,101357.16
2018-07-10T10:00:32.242Z,101355.36
2018-07-10T10:03:01.304Z,101354.37
2018-07-10T10:05:37.233Z,101348.73
2018-07-10T10:08:06.163Z,101344.05
2018-07-10T10:10:35.088Z,101335.14
2018-07-10T10:13:03.974Z,101332.34
2018-07-10T10:15:34.884Z,101319.11
2018-07-10T10:18:06.611Z,101317.27
2018-07-10T10:20:37.050Z,101310.86
2018-07-10T10:23:06.584Z,101315.48
2018-07-10T10:25:37.899Z,101310.33
2018-07-10T10:28:08.424Z,101312.12
2018-07-10T10:30:39.619Z,101316.00
2018-07-10T10:33:09.568Z,101310.20
2018-07-10T10:35:38.880Z,101311.37
2018-07-10T10:38:08.059Z,101311.10
2018-07-10T10:40:38.787Z,101310.09
2018-07-10T10:43:10.634Z,101309.45
2018-07-10T10:45:42.484Z,101314.17
2018-07-10T10:48:13.246Z,101303.61
2018-07-10T10:50:46.917Z,101299.05
2018-07-10T10:53:15.872Z,101306.62
2018-07-10T10:55:44.772Z,101291.64
2018-07-10T10:58:13.709Z,101295.15
2018-07-10T11:00:42.680Z,101282.44
2018-07-10T11:03:11.621Z,101287.28
2018-07-10T11:05:40.910Z,101283.38
2018-07-10T11:08:10.001Z,101278.30
2018-07-10T11:10:43.867Z,101272.86
2018-07-10T11:13:14.914Z,101270.49
2018-07-10T11:15:45.608Z,101265.11
2018-07-10T11:18:24.290Z,101265.70
2018-07-10T11:21:16.311Z,101263.80
2018-07-10T11:23:54.248Z,101256.23
2018-07-10T11:26:31.470Z,101256.98
2018-07-10T11:29:00.393Z,101254.29
2018-07-10T11:31:29.473Z,101254.58
2018-07-10T11:33:58.413Z,101261.09
2018-07-10T11:36:27.384Z,101254.80
2018-07-10T11:39:00.528Z,101269.19
2018-07-10T11:41:31.087Z,101264.41
2018-07-10T11:44:03.212Z,101270.91
2018-07-10T11:46:32.274Z,101262.88
2018-07-10T11:49:01.193Z,101266.55
2018-07-10T11:51:30.324Z,101266.81
2018-07-10T11:53:59.283Z,101272.62
2018-07-10T11:56:28.277Z,101274.10
2018-07-10T11:58:57.323Z,101278.48
2018-07-10T12:01:26.825Z,101278.21
2018-07-10T12:03:57.002Z,101276.81
2018-07-10T12:06:26.741Z,101280.60
2018-07-10T12:08:56.718Z,101277.02
2018-07-10T12:11:27.933Z,101274.23
2018-07-10T12:13:56.853Z,101287.10
2018-07-10T12:16:25.756Z,101277.45
2018-07-10T12:18:54.712Z,101271.59
2018-07-10T12:21:23.629Z,101269.94
2018-07-10T12:23:52.544Z,101262.55
2018-07-10T12:26:22.440Z,101257.72
2018-07-10T12:28:51.822Z,101262.33
2018-07-10T12:31:20.814Z,101259.22
2018-07-10T12:33:49.717Z,101252.00
2018-07-10T12:36:18.678Z,101245.98
2018-07-10T12:38:47.649Z,101240.61
2018-07-10T12:41:17.080Z,101240.77
2018-07-10T12:43:45.969Z,101232.88
2018-07-10T12:46:14.914Z,101229.31
2018-07-10T12:48:43.848Z,101229.77
2018-07-10T12:51:12.779Z,101223.29
2018-07-10T12:53:41.721Z,101218.38
2018-07-10T12:56:10.657Z,101224.96
2018-07-10T12:58:41.684Z,101221.20
2018-07-10T13:01:10.873Z,101214.50
2018-07-10T13:03:39.950Z,101215.36
2018-07-10T13:06:09.029Z,101205.23
2018-07-10T13:08:37.918Z,101196.56
2018-07-10T13:11:06.845Z,101196.30
2018-07-10T13:13:35.790Z,101185.44
2018-07-10T13:16:04.698Z,101191.56
2018-07-10T13:18:34.122Z,101187.55
2018-07-10T13:21:03.095Z,101186.77
2018-07-10T13:23:32.016Z,101185.47
2018-07-10T13:26:00.925Z,101183.63
2018-07-10T13:28:29.880Z,101183.08
2018-07-10T13:30:58.777Z,101172.93
2018-07-10T13:33:27.906Z,101165.56
2018-07-10T13:35:56.823Z,101162.59
2018-07-10T13:38:25.743Z,101169.66
2018-07-10T13:40:57.926Z,101161.76
2018-07-10T13:43:27.349Z,101150.60
2018-07-10T13:45:56.261Z,101146.53
2018-07-10T13:48:25.242Z,101141.06
2018-07-10T13:50:54.160Z,101140.52
2018-07-10T13:53:23.339Z,101138.87
2018-07-10T13:55:52.559Z,101132.34
2018-07-10T13:58:24.800Z,101126.61
2018-07-10T14:00:56.600Z,101123.88
2018-07-10T14:03:26.333Z,101128.25
2018-07-10T14:05:55.629Z,101114.32
2018-07-10T14:08:25.038Z,101117.89
2018-07-10T14:10:53.928Z,101112.95
2018-07-10T14:13:22.886Z,101100.64
2018-07-10T14:15:51.790Z,101101.72
2018-07-10T14:18:20.707Z,101098.75
2018-07-10T14:20:53.294Z,101100.11
2018-07-10T14:23:22.692Z,101098.47
2018-07-10T14:25:52.350Z,101100.06
2018-07-10T14:28:25.018Z,101102.27
2018-07-10T14:30:53.865Z,101099.54
2018-07-10T14:33:23.114Z,101089.98
2018-07-10T14:35:52.101Z,101085.59
2018-07-10T14:38:24.438Z,101086.42
2018-07-10T14:40:54.079Z,101086.70
2018-07-10T14:43:27.516Z,101089.72
2018-07-10T14:46:01.282Z,101086.45
2018-07-10T14:48:34.165Z,101082.39
2018-07-10T14:51:04.098Z,101084.53
2018-07-10T14:53:36.138Z,101080.71
2018-07-10T14:56:05.254Z,101072.54
2018-07-10T14:58:34.164Z,101068.98
2018-07-10T15:01:03.126Z,101064.08
2018-07-10T15:03:32.058Z,101066.25
2018-07-10T15:06:00.992Z,101060.23
2018-07-10T15:08:29.930Z,101055.60
2018-07-10T15:11:04.327Z,101050.95
2018-07-10T15:13:44.477Z,101053.32
2018-07-10T15:16:13.400Z,101043.39
2018-07-10T15:18:46.094Z,101045.44
2018-07-10T15:21:15.061Z,101050.37
2018-07-10T15:23:43.981Z,101047.11
2018-07-10T15:26:12.873Z,101055.59
2018-07-10T15:28:41.802Z,101055.88
2018-07-10T15:31:10.754Z,101058.88
2018-07-10T15:33:39.643Z,101053.41
2018-07-10T15:36:08.576Z,101050.94
2018-07-10T15:38:37.494Z,101046.83
2018-07-10T15:41:06.762Z,101050.12
2018-07-10T15:43:35.665Z,101055.02
2018-07-10T15:46:04.600Z,101049.76
2018-07-10T15:48:33.530Z,101037.03
2018-07-10T15:51:02.445Z,101037.29
2018-07-10T15:53:31.388Z,101038.94
2018-07-10T15:56:00.286Z,101034.03
2018-07-10T15:58:29.221Z,101032.11
2018-07-10T16:00:58.143Z,101024.45
2018-07-10T16:03:27.049Z,101028.00
2018-07-10T16:05:56.237Z,101025.03
2018-07-10T16:08:25.171Z,101017.89
2018-07-10T16:10:57.444Z,101016.47
2018-07-10T16:13:28.034Z,101015.91
2018-07-10T16:15:58.730Z,101008.58
2018-07-10T16:18:29.321Z,100991.06
2018-07-10T16:21:01.341Z,100976.34
2018-07-10T16:23:30.850Z,100972.01
2018-07-10T16:26:10.904Z,100980.76
2018-07-10T16:28:41.068Z,100977.77
2018-07-10T16:31:14.467Z,101007.27
2018-07-10T16:33:47.235Z,100981.84
2018-07-10T16:36:17.024Z,100976.36
2018-07-10T16:38:45.947Z,100991.94
2018-07-10T16:41:23.360Z,100990.84
2018-07-10T16:43:52.519Z,100999.25
2018-07-10T16:46:26.268Z,101002.78
2018-07-10T16:48:58.858Z,101002.17
2018-07-10T16:51:31.536Z,101009.28
2018-07-10T16:54:01.817Z,101013.95
2018-07-10T16:56:30.717Z,101012.84
2018-07-10T16:58:59.765Z,101016.86
2018-07-10T17:01:29.334Z,101019.33
2018-07-10T17:03:58.723Z,101022.83
2018-07-10T17:06:27.796Z,101040.58
2018-07-10T17:08:56.748Z,101036.79
2018-07-10T17:11:25.704Z,101039.83
2018-07-10T17:13:54.635Z,101042.02
2018-07-10T17:16:30.381Z,101041.77
2018-07-10T17:18:59.363Z,101038.80
2018-07-10T17:21:29.274Z,101032.53
2018-07-10T17:24:01.159Z,101037.73
2018-07-10T17:26:30.257Z,101042.39
2018-07-10T17:29:02.485Z,101048.13
2018-07-10T17:31:31.428Z,101045.09
2018-07-10T17:34:01.071Z,101040.18
2018-07-10T17:36:30.006Z,101053.00
2018-07-10T17:38:59.422Z,101054.11
2018-07-10T17:41:32.212Z,101051.95
2018-07-10T17:44:01.699Z,101059.58
2018-07-10T17:46:30.908Z,101056.05
2018-07-10T17:48:59.831Z,101057.71
2018-07-10T17:51:28.750Z,101057.72
2018-07-10T17:53:57.669Z,101066.19
2018-07-10T17:56:26.589Z,101062.88
2018-07-10T17:58:55.528Z,101065.02
2018-07-10T18:01:24.450Z,101055.72
2018-07-10T18:03:53.342Z,101061.16
2018-07-10T18:06:23.230Z,101061.70
2018-07-10T18:08:52.164Z,101059.23
2018-07-10T18:11:21.153Z,101063.06
2018-07-10T18:13:50.193Z,101070.72
2018-07-10T18:16:19.173Z,101069.08
2018-07-10T18:18:48.380Z,101078.38
2018-07-10T18:21:17.277Z,101085.75
2018-07-10T18:23:46.378Z,101084.69
2018-07-10T18:26:15.329Z,101085.80
2018-07-10T18:28:44.270Z,101088.25
2018-07-10T18:31:13.256Z,101089.39
2018-07-10T18:33:42.161Z,101097.03
2018-07-10T18:36:11.082Z,101113.72
2018-07-10T18:38:40.011Z,101108.56
2018-07-10T18:41:09.225Z,101104.72
2018-07-10T18:43:38.113Z,101108.02
2018-07-10T18:46:07.057Z,101111.28
2018-07-10T18:48:36.007Z,101121.12
2018-07-10T18:51:04.901Z,101122.49
2018-07-10T18:53:33.860Z,101115.66
2018-07-10T18:56:02.751Z,101122.22
2018-07-10T18:58:35.477Z,101121.69
2018-07-10T19:01:24.515Z,101125.80
2018-07-10T19:03:54.090Z,101127.69
2018-07-10T19:06:24.456Z,101128.80
2018-07-10T19:08:54.658Z,101129.89
2018-07-10T19:11:24.972Z,101132.91
2018-07-10T19:13:53.904Z,101137.52
2018-07-10T19:16:23.629Z,101138.61
2018-07-10T19:18:53.344Z,101138.37
2018-07-10T19:21:26.641Z,101138.09
2018-07-10T19:23:57.804Z,101138.62
2018-07-10T19:26:28.666Z,101140.54
2018-07-10T19:29:11.396Z,101139.45
2018-07-10T19:31:40.336Z,101148.45
2018-07-10T19:34:09.263Z,101143.84
2018-07-10T19:36:38.170Z,101154.76
2018-07-10T19:39:07.721Z,101160.75
2018-07-10T19:41:36.880Z,101162.67
2018-07-10T19:44:05.805Z,101163.20
2018-07-10T19:46:35.908Z,101169.78
2018-07-10T19:49:05.394Z,101173.84
2018-07-10T19:51:34.489Z,101175.98
2018-07-10T19:54:14.324Z,101185.55
2018-07-10T19:56:43.322Z,101184.74
2018-07-10T19:59:13.680Z,101191.01
2018-07-10T20:02:01.456Z,101194.00
2018-07-10T20:04:38.009Z,101198.89
2018-07-10T20:07:25.956Z,101192.06
2018-07-10T20:10:05.218Z,101207.92
2018-07-10T20:12:39.255Z,101208.16
2018-07-10T20:15:51.628Z,101214.70
2018-07-10T20:19:33.486Z,101214.42
2018-07-10T20:22:12.649Z,101218.76
2018-07-10T20:24:46.777Z,101225.33
2018-07-10T20:28:25.641Z,101222.02
2018-07-10T20:31:19.183Z,101218.99
2018-07-10T20:34:27.571Z,101226.12
2018-07-10T20:36:56.514Z,101226.09
2018-07-10T20:39:33.885Z,101230.17
2018-07-10T20:42:03.214Z,101234.82
2018-07-10T20:44:50.408Z,101244.87
2018-07-10T20:47:19.707Z,101239.69
2018-07-10T20:49:55.115Z,101245.95
2018-07-10T20:52:28.235Z,101249.23
2018-07-10T20:55:04.270Z,101253.06
2018-07-10T20:57:47.271Z,101252.26
2018-07-10T21:00:16.370Z,101255.76
2018-07-10T21:03:08.453Z,101259.55
2018-07-10T21:05:39.355Z,101259.54
2018-07-10T21:08:14.307Z,101256.56
2018-07-10T21:10:52.916Z,101261.11
2018-07-10T21:13:33.820Z,101260.25
2018-07-10T21:16:07.931Z,101264.34
2018-07-10T21:18:48.883Z,101264.51
2018-07-10T21:21:44.346Z,101261.86
2018-07-10T21:24:18.512Z,101270.50
2018-07-10T21:26:54.207Z,101266.97
2018-07-10T21:29:32.813Z,101269.93
2018-07-10T21:32:03.798Z,101270.45
2018-07-10T21:34:45.748Z,101269.34
2018-07-10T21:41:42.149Z,101268.48
2018-07-10T21:46:24.774Z,101260.52
2018-07-10T21:49:00.091Z,101266.17
2018-07-10T21:51:29.024Z,101262.05
2018-07-10T21:53:57.945Z,101267.43
2018-07-10T21:56:26.961Z,101273.14
2018-07-10T21:58:55.766Z,101277.87
2018-07-10T22:01:46.998Z,101269.80
2018-07-10T22:04:18.937Z,101276.56
2018-07-10T22:06:48.885Z,101277.47
2018-07-10T22:09:18.104Z,101270.09
2018-07-10T22:11:48.002Z,101287.22
2018-07-10T22:14:17.477Z,101282.56
2018-07-10T22:16:46.419Z,101287.98
2018-07-10T22:19:18.637Z,101288.60
2018-07-10T22:21:47.744Z,101285.73
2018-07-10T22:24:16.665Z,101287.74
2018-07-10T22:26:45.581Z,101290.08
2018-07-10T22:29:14.579Z,101288.53
2018-07-10T22:31:48.811Z,101291.81
2018-07-10T22:34:17.778Z,101294.42
2018-07-10T22:36:46.699Z,101291.73
2018-07-10T22:39:15.978Z,101289.73
2018-07-10T22:41:45.370Z,101291.94
2018-07-10T22:44:14.264Z,101292.06
2018-07-10T22:46:43.361Z,101298.92
2018-07-10T22:49:14.055Z,101291.34
2018-07-10T22:51:43.116Z,101297.28
2018-07-10T22:54:12.001Z,101299.89
2018-07-10T22:56:40.889Z,101299.81
2018-07-10T22:59:09.785Z,101305.75
2018-07-10T23:01:38.754Z,101303.86
2018-07-10T23:04:07.643Z,101301.90
2018-07-10T23:06:37.411Z,101296.52
2018-07-10T23:09:06.553Z,101306.84
2018-07-10T23:11:36.011Z,101302.70
2018-07-10T23:14:04.909Z,101305.40
2018-07-10T23:16:41.270Z,101300.42
2018-07-10T23:19:10.203Z,101307.55
2018-07-10T23:21:40.405Z,101306.29
2018-07-10T23:24:09.759Z,101302.30
2018-07-10T23:26:41.049Z,101301.42
2018-07-10T23:29:10.873Z,101299.64
2018-07-10T23:31:42.253Z,101296.02
2018-07-10T23:34:14.680Z,101298.19
2018-07-10T23:36:54.820Z,101299.91
2018-07-10T23:39:29.156Z,101303.89
2018-07-10T23:42:07.764Z,101294.27
2018-07-10T23:44:40.888Z,101301.20
2018-07-10T23:47:23.576Z,101303.47
2018-07-10T23:49:57.187Z,101303.56
2018-07-10T23:54:43.267Z,101297.28
2018-07-10T23:57:12.565Z,101291.39
2018-07-10T23:59:41.712Z,101291.72
